sensor_id;sensor_type;location;lat;lon;timestamp;P1;durP1;ratioP1;P2;durP2;ratioP2
57441;SDS011;43284;47.042;15.498;2022-11-25T00:01:31;10.90;;;5.05;;
57441;SDS011;43284;47.042;15.498;2022-11-25T00:03:58;8.25;;;4.47;;
57441;SDS011;43284;47.042;15.498;2022-11-25T00:06:25;10.20;;;5.38;;
57441;SDS011;43284;47.042;15.498;2022-11-25T00:08:55;15.27;;;7.07;;
57441;SDS011;43284;47.042;15.498;2022-11-25T00:11:25;11.98;;;6.18;;
57441;SDS011;43284;47.042;15.498;2022-11-25T00:13:51;14.85;;;7.75;;
57441;SDS011;43284;47.042;15.498;2022-11-25T00:16:19;15.13;;;6.75;;
57441;SDS011;43284;47.042;15.498;2022-11-25T00:18:46;17.52;;;7.43;;
57441;SDS011;43284;47.042;15.498;2022-11-25T00:21:14;14.15;;;7.72;;
57441;SDS011;43284;47.042;15.498;2022-11-25T00:23:42;17.38;;;7.32;;
57441;SDS011;43284;47.042;15.498;2022-11-25T00:26:12;17.65;;;7.35;;
57441;SDS011;43284;47.042;15.498;2022-11-25T00:28:41;9.83;;;5.40;;
57441;SDS011;43284;47.042;15.498;2022-11-25T00:31:30;10.07;;;5.60;;
57441;SDS011;43284;47.042;15.498;2022-11-25T00:33:57;12.77;;;7.03;;
57441;SDS011;43284;47.042;15.498;2022-11-25T00:36:25;15.98;;;7.97;;
57441;SDS011;43284;47.042;15.498;2022-11-25T00:38:59;10.88;;;6.00;;
57441;SDS011;43284;47.042;15.498;2022-11-25T00:41:28;15.13;;;6.83;;
57441;SDS011;43284;47.042;15.498;2022-11-25T00:44:16;15.65;;;6.15;;
57441;SDS011;43284;47.042;15.498;2022-11-25T00:49:31;12.35;;;5.45;;
57441;SDS011;43284;47.042;15.498;2022-11-25T00:51:56;14.40;;;6.35;;
57441;SDS011;43284;47.042;15.498;2022-11-25T00:54:22;18.85;;;7.03;;
57441;SDS011;43284;47.042;15.498;2022-11-25T00:56:48;13.75;;;6.35;;
57441;SDS011;43284;47.042;15.498;2022-11-25T00:59:14;14.73;;;6.63;;
57441;SDS011;43284;47.042;15.498;2022-11-25T01:01:39;13.85;;;6.25;;
57441;SDS011;43284;47.042;15.498;2022-11-25T01:04:05;11.80;;;7.05;;
57441;SDS011;43284;47.042;15.498;2022-11-25T01:06:31;12.55;;;6.25;;
57441;SDS011;43284;47.042;15.498;2022-11-25T01:08:58;13.20;;;6.50;;
57441;SDS011;43284;47.042;15.498;2022-11-25T01:11:23;13.98;;;5.20;;
57441;SDS011;43284;47.042;15.498;2022-11-25T01:13:49;11.38;;;5.05;;
57441;SDS011;43284;47.042;15.498;2022-11-25T01:16:16;13.05;;;6.45;;
57441;SDS011;43284;47.042;15.498;2022-11-25T01:18:43;12.48;;;6.03;;
57441;SDS011;43284;47.042;15.498;2022-11-25T01:21:12;10.63;;;5.43;;
57441;SDS011;43284;47.042;15.498;2022-11-25T01:23:43;9.77;;;5.32;;
57441;SDS011;43284;47.042;15.498;2022-11-25T01:26:09;11.07;;;5.53;;
57441;SDS011;43284;47.042;15.498;2022-11-25T01:28:37;9.90;;;5.05;;
57441;SDS011;43284;47.042;15.498;2022-11-25T01:31:06;8.43;;;5.50;;
57441;SDS011;43284;47.042;15.498;2022-11-25T01:33:34;14.60;;;5.88;;
57441;SDS011;43284;47.042;15.498;2022-11-25T01:36:05;11.32;;;5.43;;
57441;SDS011;43284;47.042;15.498;2022-11-25T01:38:41;14.32;;;6.00;;
57441;SDS011;43284;47.042;15.498;2022-11-25T01:41:08;17.20;;;6.55;;
57441;SDS011;43284;47.042;15.498;2022-11-25T01:43:36;17.42;;;6.22;;
57441;SDS011;43284;47.042;15.498;2022-11-25T01:48:38;15.18;;;6.88;;
57441;SDS011;43284;47.042;15.498;2022-11-25T01:51:22;18.45;;;8.32;;
57441;SDS011;43284;47.042;15.498;2022-11-25T01:53:51;17.80;;;7.32;;
57441;SDS011;43284;47.042;15.498;2022-11-25T01:56:20;15.40;;;6.95;;
57441;SDS011;43284;47.042;15.498;2022-11-25T01:58:46;18.13;;;8.27;;
57441;SDS011;43284;47.042;15.498;2022-11-25T02:01:13;14.70;;;7.47;;
57441;SDS011;43284;47.042;15.498;2022-11-25T02:03:42;13.90;;;7.45;;
57441;SDS011;43284;47.042;15.498;2022-11-25T02:08:44;17.52;;;7.10;;
57441;SDS011;43284;47.042;15.498;2022-11-25T02:11:13;13.05;;;6.32;;
57441;SDS011;43284;47.042;15.498;2022-11-25T02:13:40;19.50;;;7.75;;
57441;SDS011;43284;47.042;15.498;2022-11-25T02:16:06;13.38;;;7.18;;
57441;SDS011;43284;47.042;15.498;2022-11-25T02:18:31;15.23;;;7.43;;
57441;SDS011;43284;47.042;15.498;2022-11-25T02:20:57;14.68;;;7.55;;
57441;SDS011;43284;47.042;15.498;2022-11-25T02:26:12;15.15;;;7.28;;
57441;SDS011;43284;47.042;15.498;2022-11-25T02:28:37;13.98;;;6.90;;
57441;SDS011;43284;47.042;15.498;2022-11-25T02:31:05;17.23;;;7.32;;
57441;SDS011;43284;47.042;15.498;2022-11-25T02:33:31;17.00;;;7.13;;
57441;SDS011;43284;47.042;15.498;2022-11-25T02:35:57;16.95;;;6.68;;
57441;SDS011;43284;47.042;15.498;2022-11-25T02:38:44;13.63;;;6.75;;
57441;SDS011;43284;47.042;15.498;2022-11-25T02:41:17;13.63;;;7.25;;
57441;SDS011;43284;47.042;15.498;2022-11-25T02:43:46;14.57;;;6.82;;
57441;SDS011;43284;47.042;15.498;2022-11-25T02:46:13;14.68;;;7.35;;
57441;SDS011;43284;47.042;15.498;2022-11-25T02:48:40;14.82;;;6.70;;
57441;SDS011;43284;47.042;15.498;2022-11-25T02:51:08;15.57;;;6.68;;
57441;SDS011;43284;47.042;15.498;2022-11-25T02:53:36;13.52;;;6.70;;
57441;SDS011;43284;47.042;15.498;2022-11-25T02:56:01;12.90;;;6.53;;
57441;SDS011;43284;47.042;15.498;2022-11-25T02:58:27;15.15;;;6.20;;
57441;SDS011;43284;47.042;15.498;2022-11-25T03:00:53;11.25;;;5.90;;
57441;SDS011;43284;47.042;15.498;2022-11-25T03:03:18;13.77;;;6.18;;
57441;SDS011;43284;47.042;15.498;2022-11-25T03:05:44;12.52;;;5.60;;
57441;SDS011;43284;47.042;15.498;2022-11-25T03:08:09;12.55;;;5.57;;
57441;SDS011;43284;47.042;15.498;2022-11-25T03:10:38;13.50;;;5.53;;
57441;SDS011;43284;47.042;15.498;2022-11-25T03:13:05;11.63;;;6.05;;
57441;SDS011;43284;47.042;15.498;2022-11-25T03:15:32;11.50;;;4.70;;
57441;SDS011;43284;47.042;15.498;2022-11-25T03:17:58;11.98;;;4.75;;
57441;SDS011;43284;47.042;15.498;2022-11-25T03:20:23;9.68;;;5.45;;
57441;SDS011;43284;47.042;15.498;2022-11-25T03:22:49;10.90;;;5.47;;
57441;SDS011;43284;47.042;15.498;2022-11-25T03:25:14;9.77;;;4.80;;
57441;SDS011;43284;47.042;15.498;2022-11-25T03:27:40;11.88;;;5.05;;
57441;SDS011;43284;47.042;15.498;2022-11-25T03:30:08;15.10;;;6.22;;
57441;SDS011;43284;47.042;15.498;2022-11-25T03:32:36;9.07;;;5.15;;
57441;SDS011;43284;47.042;15.498;2022-11-25T03:35:03;12.00;;;4.95;;
57441;SDS011;43284;47.042;15.498;2022-11-25T03:37:29;10.88;;;5.07;;
57441;SDS011;43284;47.042;15.498;2022-11-25T03:39:54;13.68;;;5.38;;
57441;SDS011;43284;47.042;15.498;2022-11-25T03:42:20;13.57;;;5.22;;
57441;SDS011;43284;47.042;15.498;2022-11-25T03:44:45;10.55;;;4.78;;
57441;SDS011;43284;47.042;15.498;2022-11-25T03:47:11;10.52;;;4.30;;
57441;SDS011;43284;47.042;15.498;2022-11-25T03:49:36;16.08;;;5.30;;
57441;SDS011;43284;47.042;15.498;2022-11-25T03:52:02;9.68;;;4.78;;
57441;SDS011;43284;47.042;15.498;2022-11-25T03:54:28;8.65;;;4.50;;
57441;SDS011;43284;47.042;15.498;2022-11-25T03:56:53;12.93;;;5.03;;
57441;SDS011;43284;47.042;15.498;2022-11-25T03:59:19;8.48;;;4.43;;
57441;SDS011;43284;47.042;15.498;2022-11-25T04:04:13;8.93;;;4.22;;
57441;SDS011;43284;47.042;15.498;2022-11-25T04:06:38;7.78;;;4.10;;
57441;SDS011;43284;47.042;15.498;2022-11-25T04:09:05;10.63;;;4.53;;
57441;SDS011;43284;47.042;15.498;2022-11-25T04:11:31;8.63;;;4.75;;
57441;SDS011;43284;47.042;15.498;2022-11-25T04:14:15;9.63;;;4.63;;
57441;SDS011;43284;47.042;15.498;2022-11-25T04:16:40;13.48;;;5.47;;
57441;SDS011;43284;47.042;15.498;2022-11-25T04:19:06;8.93;;;4.18;;
57441;SDS011;43284;47.042;15.498;2022-11-25T04:21:31;14.07;;;4.80;;
57441;SDS011;43284;47.042;15.498;2022-11-25T04:23:57;7.53;;;4.55;;
57441;SDS011;43284;47.042;15.498;2022-11-25T04:26:22;10.77;;;4.45;;
57441;SDS011;43284;47.042;15.498;2022-11-25T04:28:48;8.65;;;3.97;;
57441;SDS011;43284;47.042;15.498;2022-11-25T04:31:14;6.50;;;3.50;;
57441;SDS011;43284;47.042;15.498;2022-11-25T04:33:39;8.18;;;4.05;;
57441;SDS011;43284;47.042;15.498;2022-11-25T04:36:05;8.57;;;4.00;;
57441;SDS011;43284;47.042;15.498;2022-11-25T04:38:31;7.15;;;3.10;;
57441;SDS011;43284;47.042;15.498;2022-11-25T04:40:56;8.85;;;3.00;;
57441;SDS011;43284;47.042;15.498;2022-11-25T04:43:22;6.57;;;3.50;;
57441;SDS011;43284;47.042;15.498;2022-11-25T04:45:48;11.05;;;3.05;;
57441;SDS011;43284;47.042;15.498;2022-11-25T04:48:14;5.35;;;2.78;;
57441;SDS011;43284;47.042;15.498;2022-11-25T04:50:40;5.05;;;2.88;;
57441;SDS011;43284;47.042;15.498;2022-11-25T04:53:05;8.15;;;3.42;;
57441;SDS011;43284;47.042;15.498;2022-11-25T04:55:31;3.78;;;2.15;;
57441;SDS011;43284;47.042;15.498;2022-11-25T04:57:56;6.00;;;2.58;;
57441;SDS011;43284;47.042;15.498;2022-11-25T05:00:22;3.85;;;2.10;;
57441;SDS011;43284;47.042;15.498;2022-11-25T05:02:48;6.55;;;2.50;;
57441;SDS011;43284;47.042;15.498;2022-11-25T05:05:15;6.82;;;2.25;;
57441;SDS011;43284;47.042;15.498;2022-11-25T05:07:43;2.85;;;1.73;;
57441;SDS011;43284;47.042;15.498;2022-11-25T05:10:08;6.75;;;2.20;;
57441;SDS011;43284;47.042;15.498;2022-11-25T05:12:34;4.57;;;2.17;;
57441;SDS011;43284;47.042;15.498;2022-11-25T05:14:59;3.53;;;2.13;;
57441;SDS011;43284;47.042;15.498;2022-11-25T05:17:26;5.85;;;2.00;;
57441;SDS011;43284;47.042;15.498;2022-11-25T05:19:54;3.53;;;1.55;;
57441;SDS011;43284;47.042;15.498;2022-11-25T05:22:21;3.15;;;1.38;;
57441;SDS011;43284;47.042;15.498;2022-11-25T05:24:48;3.60;;;1.70;;
57441;SDS011;43284;47.042;15.498;2022-11-25T05:27:14;5.18;;;2.30;;
57441;SDS011;43284;47.042;15.498;2022-11-25T05:29:40;6.57;;;2.65;;
57441;SDS011;43284;47.042;15.498;2022-11-25T05:32:06;3.42;;;1.92;;
57441;SDS011;43284;47.042;15.498;2022-11-25T05:34:32;3.83;;;1.80;;
57441;SDS011;43284;47.042;15.498;2022-11-25T05:36:58;8.88;;;1.80;;
57441;SDS011;43284;47.042;15.498;2022-11-25T05:39:24;2.83;;;1.10;;
57441;SDS011;43284;47.042;15.498;2022-11-25T05:41:49;7.07;;;3.10;;
57441;SDS011;43284;47.042;15.498;2022-11-25T05:44:15;6.03;;;3.40;;
57441;SDS011;43284;47.042;15.498;2022-11-25T05:46:42;8.18;;;3.45;;
57441;SDS011;43284;47.042;15.498;2022-11-25T05:49:10;7.57;;;3.88;;
57441;SDS011;43284;47.042;15.498;2022-11-25T05:51:36;21.40;;;9.27;;
57441;SDS011;43284;47.042;15.498;2022-11-25T05:54:04;24.45;;;11.65;;
57441;SDS011;43284;47.042;15.498;2022-11-25T05:56:29;27.25;;;11.38;;
57441;SDS011;43284;47.042;15.498;2022-11-25T05:58:57;25.83;;;10.52;;
57441;SDS011;43284;47.042;15.498;2022-11-25T06:01:23;26.60;;;11.80;;
57441;SDS011;43284;47.042;15.498;2022-11-25T06:03:58;26.65;;;11.40;;
57441;SDS011;43284;47.042;15.498;2022-11-25T06:06:32;18.30;;;8.32;;
57441;SDS011;43284;47.042;15.498;2022-11-25T06:12:28;66.40;;;11.20;;
57441;SDS011;43284;47.042;15.498;2022-11-25T06:15:00;31.65;;;9.15;;
57441;SDS011;43284;47.042;15.498;2022-11-25T06:17:44;31.08;;;8.38;;
57441;SDS011;43284;47.042;15.498;2022-11-25T06:20:15;31.75;;;8.93;;
57441;SDS011;43284;47.042;15.498;2022-11-25T06:22:44;17.27;;;8.52;;
57441;SDS011;43284;47.042;15.498;2022-11-25T06:25:11;21.77;;;7.95;;
57441;SDS011;43284;47.042;15.498;2022-11-25T06:27:36;13.18;;;7.18;;
57441;SDS011;43284;47.042;15.498;2022-11-25T06:30:02;15.50;;;8.00;;
57441;SDS011;43284;47.042;15.498;2022-11-25T06:32:28;13.52;;;7.13;;
57441;SDS011;43284;47.042;15.498;2022-11-25T06:34:53;14.13;;;7.35;;
57441;SDS011;43284;47.042;15.498;2022-11-25T06:37:19;18.63;;;7.47;;
57441;SDS011;43284;47.042;15.498;2022-11-25T06:39:44;12.43;;;7.13;;
57441;SDS011;43284;47.042;15.498;2022-11-25T06:42:10;20.58;;;8.13;;
57441;SDS011;43284;47.042;15.498;2022-11-25T06:44:35;17.60;;;7.35;;
57441;SDS011;43284;47.042;15.498;2022-11-25T06:47:01;14.07;;;6.97;;
57441;SDS011;43284;47.042;15.498;2022-11-25T06:49:27;17.02;;;7.57;;
57441;SDS011;43284;47.042;15.498;2022-11-25T06:51:53;18.42;;;7.65;;
57441;SDS011;43284;47.042;15.498;2022-11-25T06:54:18;16.67;;;7.70;;
57441;SDS011;43284;47.042;15.498;2022-11-25T06:56:44;16.10;;;7.18;;
57441;SDS011;43284;47.042;15.498;2022-11-25T06:59:15;15.52;;;7.30;;
57441;SDS011;43284;47.042;15.498;2022-11-25T07:01:42;20.67;;;9.48;;
57441;SDS011;43284;47.042;15.498;2022-11-25T07:04:08;28.27;;;13.93;;
57441;SDS011;43284;47.042;15.498;2022-11-25T07:06:34;28.63;;;12.18;;
57441;SDS011;43284;47.042;15.498;2022-11-25T07:09:00;27.70;;;12.13;;
57441;SDS011;43284;47.042;15.498;2022-11-25T07:11:27;16.83;;;8.57;;
57441;SDS011;43284;47.042;15.498;2022-11-25T07:13:55;15.02;;;8.30;;
57441;SDS011;43284;47.042;15.498;2022-11-25T07:16:23;16.10;;;8.35;;
57441;SDS011;43284;47.042;15.498;2022-11-25T07:18:49;18.77;;;7.50;;
57441;SDS011;43284;47.042;15.498;2022-11-25T07:21:16;13.90;;;6.40;;
57441;SDS011;43284;47.042;15.498;2022-11-25T07:23:43;13.63;;;7.40;;
57441;SDS011;43284;47.042;15.498;2022-11-25T07:26:14;18.05;;;7.68;;
57441;SDS011;43284;47.042;15.498;2022-11-25T07:28:41;14.30;;;6.72;;
57441;SDS011;43284;47.042;15.498;2022-11-25T07:31:08;13.52;;;6.53;;
57441;SDS011;43284;47.042;15.498;2022-11-25T07:33:45;16.00;;;6.70;;
57441;SDS011;43284;47.042;15.498;2022-11-25T07:36:12;14.50;;;6.45;;
57441;SDS011;43284;47.042;15.498;2022-11-25T07:38:39;26.35;;;12.73;;
57441;SDS011;43284;47.042;15.498;2022-11-25T07:41:10;27.30;;;14.15;;
57441;SDS011;43284;47.042;15.498;2022-11-25T07:43:37;36.05;;;14.45;;
57441;SDS011;43284;47.042;15.498;2022-11-25T07:46:07;46.28;;;18.52;;
57441;SDS011;43284;47.042;15.498;2022-11-25T07:49:01;35.13;;;14.63;;
57441;SDS011;43284;47.042;15.498;2022-11-25T07:51:32;30.25;;;13.18;;
57441;SDS011;43284;47.042;15.498;2022-11-25T07:53:58;33.28;;;12.80;;
57441;SDS011;43284;47.042;15.498;2022-11-25T07:56:26;32.25;;;11.70;;
57441;SDS011;43284;47.042;15.498;2022-11-25T07:58:53;25.75;;;9.98;;
57441;SDS011;43284;47.042;15.498;2022-11-25T08:01:19;19.52;;;9.35;;
57441;SDS011;43284;47.042;15.498;2022-11-25T08:03:45;18.75;;;8.68;;
57441;SDS011;43284;47.042;15.498;2022-11-25T08:06:13;20.73;;;9.55;;
57441;SDS011;43284;47.042;15.498;2022-11-25T08:08:40;23.80;;;10.15;;
57441;SDS011;43284;47.042;15.498;2022-11-25T08:11:09;21.20;;;9.02;;
57441;SDS011;43284;47.042;15.498;2022-11-25T08:13:46;29.23;;;8.63;;
57441;SDS011;43284;47.042;15.498;2022-11-25T08:16:13;25.25;;;8.95;;
57441;SDS011;43284;47.042;15.498;2022-11-25T08:18:40;15.95;;;7.80;;
57441;SDS011;43284;47.042;15.498;2022-11-25T08:21:06;14.75;;;7.93;;
57441;SDS011;43284;47.042;15.498;2022-11-25T08:23:34;16.98;;;7.82;;
57441;SDS011;43284;47.042;15.498;2022-11-25T08:26:11;13.15;;;6.65;;
57441;SDS011;43284;47.042;15.498;2022-11-25T08:28:39;15.23;;;7.22;;
57441;SDS011;43284;47.042;15.498;2022-11-25T08:31:06;15.68;;;7.07;;
57441;SDS011;43284;47.042;15.498;2022-11-25T08:33:35;16.85;;;7.20;;
57441;SDS011;43284;47.042;15.498;2022-11-25T08:36:01;21.45;;;7.22;;
57441;SDS011;43284;47.042;15.498;2022-11-25T08:38:28;16.38;;;7.07;;
57441;SDS011;43284;47.042;15.498;2022-11-25T08:40:56;14.57;;;6.47;;
57441;SDS011;43284;47.042;15.498;2022-11-25T08:43:22;12.55;;;5.85;;
57441;SDS011;43284;47.042;15.498;2022-11-25T08:45:48;18.45;;;7.18;;
57441;SDS011;43284;47.042;15.498;2022-11-25T08:48:14;9.80;;;5.70;;
57441;SDS011;43284;47.042;15.498;2022-11-25T08:50:46;11.27;;;6.68;;
57441;SDS011;43284;47.042;15.498;2022-11-25T08:53:13;12.43;;;5.45;;
57441;SDS011;43284;47.042;15.498;2022-11-25T08:55:41;11.98;;;5.55;;
57441;SDS011;43284;47.042;15.498;2022-11-25T08:58:06;9.48;;;5.90;;
57441;SDS011;43284;47.042;15.498;2022-11-25T09:00:37;13.18;;;6.28;;
57441;SDS011;43284;47.042;15.498;2022-11-25T09:03:06;8.80;;;5.32;;
57441;SDS011;43284;47.042;15.498;2022-11-25T09:05:32;10.13;;;5.55;;
57441;SDS011;43284;47.042;15.498;2022-11-25T09:08:02;10.18;;;5.53;;
57441;SDS011;43284;47.042;15.498;2022-11-25T09:10:27;14.23;;;6.00;;
57441;SDS011;43284;47.042;15.498;2022-11-25T09:12:54;13.80;;;6.13;;
57441;SDS011;43284;47.042;15.498;2022-11-25T09:15:19;14.95;;;6.43;;
57441;SDS011;43284;47.042;15.498;2022-11-25T09:17:45;12.73;;;6.10;;
57441;SDS011;43284;47.042;15.498;2022-11-25T09:20:10;10.48;;;6.13;;
57441;SDS011;43284;47.042;15.498;2022-11-25T09:22:36;15.32;;;6.63;;
57441;SDS011;43284;47.042;15.498;2022-11-25T09:25:02;16.08;;;7.68;;
57441;SDS011;43284;47.042;15.498;2022-11-25T09:27:27;12.52;;;6.53;;
57441;SDS011;43284;47.042;15.498;2022-11-25T09:29:55;17.20;;;7.00;;
57441;SDS011;43284;47.042;15.498;2022-11-25T09:32:20;19.88;;;6.85;;
57441;SDS011;43284;47.042;15.498;2022-11-25T09:34:46;10.25;;;6.43;;
57441;SDS011;43284;47.042;15.498;2022-11-25T09:37:11;16.08;;;6.40;;
57441;SDS011;43284;47.042;15.498;2022-11-25T09:39:37;15.77;;;6.80;;
57441;SDS011;43284;47.042;15.498;2022-11-25T09:53:49;14.18;;;6.47;;
57441;SDS011;43284;47.042;15.498;2022-11-25T09:59:06;14.90;;;6.13;;
57441;SDS011;43284;47.042;15.498;2022-11-25T10:01:43;13.00;;;6.30;;
57441;SDS011;43284;47.042;15.498;2022-11-25T10:04:19;10.68;;;5.35;;
57441;SDS011;43284;47.042;15.498;2022-11-25T10:07:00;17.90;;;7.70;;
57441;SDS011;43284;47.042;15.498;2022-11-25T10:09:29;15.30;;;6.40;;
57441;SDS011;43284;47.042;15.498;2022-11-25T10:12:02;17.50;;;6.60;;
57441;SDS011;43284;47.042;15.498;2022-11-25T10:14:45;10.95;;;6.10;;
57441;SDS011;43284;47.042;15.498;2022-11-25T10:17:17;13.52;;;6.20;;
57441;SDS011;43284;47.042;15.498;2022-11-25T10:22:36;16.08;;;7.55;;
57441;SDS011;43284;47.042;15.498;2022-11-25T10:25:17;25.20;;;8.38;;
57441;SDS011;43284;47.042;15.498;2022-11-25T10:30:45;12.45;;;5.50;;
57441;SDS011;43284;47.042;15.498;2022-11-25T10:36:14;9.02;;;4.38;;
57441;SDS011;43284;47.042;15.498;2022-11-25T10:39:02;9.35;;;5.03;;
57441;SDS011;43284;47.042;15.498;2022-11-25T10:41:32;7.78;;;3.58;;
57441;SDS011;43284;47.042;15.498;2022-11-25T10:44:13;8.75;;;3.88;;
57441;SDS011;43284;47.042;15.498;2022-11-25T10:46:58;10.47;;;4.67;;
57441;SDS011;43284;47.042;15.498;2022-11-25T10:49:34;12.07;;;5.72;;
57441;SDS011;43284;47.042;15.498;2022-11-25T10:52:11;6.63;;;3.75;;
57441;SDS011;43284;47.042;15.498;2022-11-25T10:54:38;15.38;;;8.27;;
57441;SDS011;43284;47.042;15.498;2022-11-25T10:57:15;12.05;;;5.60;;
57441;SDS011;43284;47.042;15.498;2022-11-25T10:59:44;10.82;;;4.65;;
57441;SDS011;43284;47.042;15.498;2022-11-25T11:10:24;10.50;;;4.85;;
57441;SDS011;43284;47.042;15.498;2022-11-25T11:12:55;8.10;;;3.95;;
57441;SDS011;43284;47.042;15.498;2022-11-25T11:15:25;9.57;;;4.57;;
57441;SDS011;43284;47.042;15.498;2022-11-25T11:17:53;12.13;;;5.90;;
57441;SDS011;43284;47.042;15.498;2022-11-25T11:20:30;9.98;;;5.20;;
57441;SDS011;43284;47.042;15.498;2022-11-25T11:23:11;9.73;;;5.00;;
57441;SDS011;43284;47.042;15.498;2022-11-25T11:25:39;13.02;;;4.95;;
57441;SDS011;43284;47.042;15.498;2022-11-25T11:28:26;7.25;;;3.83;;
57441;SDS011;43284;47.042;15.498;2022-11-25T11:41:38;6.63;;;3.10;;
57441;SDS011;43284;47.042;15.498;2022-11-25T11:47:22;5.57;;;2.70;;
57441;SDS011;43284;47.042;15.498;2022-11-25T12:03:40;3.25;;;2.30;;
57441;SDS011;43284;47.042;15.498;2022-11-25T12:06:14;6.55;;;2.60;;
57441;SDS011;43284;47.042;15.498;2022-11-25T12:08:46;7.25;;;2.58;;
57441;SDS011;43284;47.042;15.498;2022-11-25T12:11:17;4.45;;;2.00;;
57441;SDS011;43284;47.042;15.498;2022-11-25T12:14:08;4.78;;;2.20;;
57441;SDS011;43284;47.042;15.498;2022-11-25T12:16:45;6.22;;;2.20;;
57441;SDS011;43284;47.042;15.498;2022-11-25T12:19:29;4.68;;;2.33;;
57441;SDS011;43284;47.042;15.498;2022-11-25T12:22:05;5.85;;;2.25;;
57441;SDS011;43284;47.042;15.498;2022-11-25T12:27:32;3.08;;;2.00;;
57441;SDS011;43284;47.042;15.498;2022-11-25T12:30:04;4.28;;;2.20;;
57441;SDS011;43284;47.042;15.498;2022-11-25T12:32:50;2.25;;;1.58;;
57441;SDS011;43284;47.042;15.498;2022-11-25T12:35:19;3.78;;;2.03;;
57441;SDS011;43284;47.042;15.498;2022-11-25T12:38:14;4.93;;;2.25;;
57441;SDS011;43284;47.042;15.498;2022-11-25T12:44:05;6.25;;;1.90;;
57441;SDS011;43284;47.042;15.498;2022-11-25T12:46:51;4.68;;;2.10;;
57441;SDS011;43284;47.042;15.498;2022-11-25T12:49:28;7.55;;;2.83;;
57441;SDS011;43284;47.042;15.498;2022-11-25T13:13:49;7.00;;;2.20;;
57441;SDS011;43284;47.042;15.498;2022-11-25T13:16:16;6.50;;;2.38;;
57441;SDS011;43284;47.042;15.498;2022-11-25T13:18:44;6.97;;;2.17;;
57441;SDS011;43284;47.042;15.498;2022-11-25T13:21:11;5.00;;;2.03;;
57441;SDS011;43284;47.042;15.498;2022-11-25T13:23:43;4.72;;;2.13;;
57441;SDS011;43284;47.042;15.498;2022-11-25T13:26:47;6.28;;;2.25;;
57441;SDS011;43284;47.042;15.498;2022-11-25T13:34:25;3.05;;;1.75;;
57441;SDS011;43284;47.042;15.498;2022-11-25T13:36:59;4.57;;;2.10;;
57441;SDS011;43284;47.042;15.498;2022-11-25T13:39:29;5.45;;;1.83;;
57441;SDS011;43284;47.042;15.498;2022-11-25T13:44:52;6.30;;;2.33;;
57441;SDS011;43284;47.042;15.498;2022-11-25T13:47:27;2.78;;;1.90;;
57441;SDS011;43284;47.042;15.498;2022-11-25T13:49:59;6.38;;;2.30;;
57441;SDS011;43284;47.042;15.498;2022-11-25T13:52:57;3.88;;;1.85;;
57441;SDS011;43284;47.042;15.498;2022-11-25T13:55:39;2.40;;;1.80;;
57441;SDS011;43284;47.042;15.498;2022-11-25T14:06:18;3.63;;;1.95;;
57441;SDS011;43284;47.042;15.498;2022-11-25T14:25:50;6.50;;;2.40;;
57441;SDS011;43284;47.042;15.498;2022-11-25T14:31:15;3.65;;;2.30;;
57441;SDS011;43284;47.042;15.498;2022-11-25T14:36:37;5.68;;;3.33;;
57441;SDS011;43284;47.042;15.498;2022-11-25T14:39:29;6.22;;;2.10;;
57441;SDS011;43284;47.042;15.498;2022-11-25T14:42:11;11.00;;;2.22;;
57441;SDS011;43284;47.042;15.498;2022-11-25T14:44:48;4.63;;;2.42;;
57441;SDS011;43284;47.042;15.498;2022-11-25T14:47:19;7.20;;;3.35;;
57441;SDS011;43284;47.042;15.498;2022-11-25T14:49:47;5.82;;;2.28;;
57441;SDS011;43284;47.042;15.498;2022-11-25T14:52:18;4.80;;;2.08;;
57441;SDS011;43284;47.042;15.498;2022-11-25T14:54:50;3.28;;;1.88;;
57441;SDS011;43284;47.042;15.498;2022-11-25T14:57:18;4.72;;;2.00;;
57441;SDS011;43284;47.042;15.498;2022-11-25T14:59:46;5.63;;;1.52;;
57441;SDS011;43284;47.042;15.498;2022-11-25T15:02:27;4.38;;;1.95;;
57441;SDS011;43284;47.042;15.498;2022-11-25T15:05:16;7.38;;;2.10;;
57441;SDS011;43284;47.042;15.498;2022-11-25T15:07:42;3.05;;;1.83;;
57441;SDS011;43284;47.042;15.498;2022-11-25T15:10:35;2.65;;;1.80;;
57441;SDS011;43284;47.042;15.498;2022-11-25T15:13:10;7.40;;;2.03;;
57441;SDS011;43284;47.042;15.498;2022-11-25T15:16:07;4.18;;;2.10;;
57441;SDS011;43284;47.042;15.498;2022-11-25T15:18:47;5.43;;;2.55;;
57441;SDS011;43284;47.042;15.498;2022-11-25T15:21:18;3.58;;;1.80;;
57441;SDS011;43284;47.042;15.498;2022-11-25T15:23:46;5.38;;;2.35;;
57441;SDS011;43284;47.042;15.498;2022-11-25T15:26:17;4.93;;;2.42;;
57441;SDS011;43284;47.042;15.498;2022-11-25T15:28:51;4.18;;;2.05;;
57441;SDS011;43284;47.042;15.498;2022-11-25T15:31:24;5.95;;;2.13;;
57441;SDS011;43284;47.042;15.498;2022-11-25T15:33:55;7.00;;;2.67;;
57441;SDS011;43284;47.042;15.498;2022-11-25T15:36:23;7.22;;;2.45;;
57441;SDS011;43284;47.042;15.498;2022-11-25T15:38:49;4.53;;;2.35;;
57441;SDS011;43284;47.042;15.498;2022-11-25T15:41:17;8.25;;;2.90;;
57441;SDS011;43284;47.042;15.498;2022-11-25T15:43:48;6.25;;;2.35;;
57441;SDS011;43284;47.042;15.498;2022-11-25T15:46:16;7.82;;;2.63;;
57441;SDS011;43284;47.042;15.498;2022-11-25T15:48:43;7.03;;;2.45;;
57441;SDS011;43284;47.042;15.498;2022-11-25T15:56:38;6.53;;;3.00;;
57441;SDS011;43284;47.042;15.498;2022-11-25T16:07:53;6.00;;;2.95;;
57441;SDS011;43284;47.042;15.498;2022-11-25T16:13:40;5.38;;;3.30;;
57441;SDS011;43284;47.042;15.498;2022-11-25T16:21:07;6.55;;;3.30;;
57441;SDS011;43284;47.042;15.498;2022-11-25T16:23:35;9.35;;;3.35;;
57441;SDS011;43284;47.042;15.498;2022-11-25T16:26:10;10.50;;;3.05;;
57441;SDS011;43284;47.042;15.498;2022-11-25T16:28:48;4.70;;;2.70;;
57441;SDS011;43284;47.042;15.498;2022-11-25T16:31:16;5.70;;;2.65;;
57441;SDS011;43284;47.042;15.498;2022-11-25T16:33:42;7.82;;;3.00;;
57441;SDS011;43284;47.042;15.498;2022-11-25T16:36:08;4.40;;;2.40;;
57441;SDS011;43284;47.042;15.498;2022-11-25T16:38:33;6.88;;;2.92;;
57441;SDS011;43284;47.042;15.498;2022-11-25T16:40:59;5.68;;;2.63;;
57441;SDS011;43284;47.042;15.498;2022-11-25T16:43:35;11.65;;;3.05;;
57441;SDS011;43284;47.042;15.498;2022-11-25T16:46:03;5.10;;;3.08;;
57441;SDS011;43284;47.042;15.498;2022-11-25T16:48:29;6.47;;;3.10;;
57441;SDS011;43284;47.042;15.498;2022-11-25T16:50:55;5.18;;;3.00;;
57441;SDS011;43284;47.042;15.498;2022-11-25T16:53:21;7.50;;;3.95;;
57441;SDS011;43284;47.042;15.498;2022-11-25T16:55:47;7.82;;;3.97;;
57441;SDS011;43284;47.042;15.498;2022-11-25T16:58:20;6.55;;;4.15;;
57441;SDS011;43284;47.042;15.498;2022-11-25T17:00:52;7.65;;;3.65;;
57441;SDS011;43284;47.042;15.498;2022-11-25T17:03:19;10.73;;;5.50;;
57441;SDS011;43284;47.042;15.498;2022-11-25T17:05:46;12.98;;;5.00;;
57441;SDS011;43284;47.042;15.498;2022-11-25T17:08:13;15.68;;;8.38;;
57441;SDS011;43284;47.042;15.498;2022-11-25T17:10:39;12.93;;;5.05;;
57441;SDS011;43284;47.042;15.498;2022-11-25T17:13:06;11.52;;;5.88;;
57441;SDS011;43284;47.042;15.498;2022-11-25T17:15:33;12.10;;;5.63;;
57441;SDS011;43284;47.042;15.498;2022-11-25T17:18:00;14.27;;;5.18;;
57441;SDS011;43284;47.042;15.498;2022-11-25T17:20:27;7.38;;;3.83;;
57441;SDS011;43284;47.042;15.498;2022-11-25T17:22:52;8.35;;;3.70;;
57441;SDS011;43284;47.042;15.498;2022-11-25T17:25:18;15.13;;;6.38;;